sensor_id;sensor_type;location;lat;lon;timestamp;temperature;humidity
37222;DHT22;23119;51.842;-2.230;2022-12-16T00:01:29;-2.00;99.90
37222;DHT22;23119;51.842;-2.230;2022-12-16T00:03:56;-1.90;99.90
37222;DHT22;23119;51.842;-2.230;2022-12-16T00:06:28;-2.00;99.90
37222;DHT22;23119;51.842;-2.230;2022-12-16T00:08:58;-2.00;99.90
37222;DHT22;23119;51.842;-2.230;2022-12-16T00:11:24;-1.80;99.90
37222;DHT22;23119;51.842;-2.230;2022-12-16T00:13:50;-2.00;99.90
37222;DHT22;23119;51.842;-2.230;2022-12-16T00:16:18;-2.00;99.90
37222;DHT22;23119;51.842;-2.230;2022-12-16T00:18:45;-2.00;99.90
37222;DHT22;23119;51.842;-2.230;2022-12-16T00:21:11;-2.10;99.90
37222;DHT22;23119;51.842;-2.230;2022-12-16T00:23:37;-2.10;99.90
37222;DHT22;23119;51.842;-2.230;2022-12-16T00:26:09;-2.20;99.90
37222;DHT22;23119;51.842;-2.230;2022-12-16T00:28:36;-2.20;99.90
37222;DHT22;23119;51.842;-2.230;2022-12-16T00:31:02;-2.20;99.90
37222;DHT22;23119;51.842;-2.230;2022-12-16T00:33:30;-2.20;99.90
37222;DHT22;23119;51.842;-2.230;2022-12-16T00:35:57;-2.10;99.90
37222;DHT22;23119;51.842;-2.230;2022-12-16T00:38:25;-2.20;99.90
37222;DHT22;23119;51.842;-2.230;2022-12-16T00:40:51;-2.20;99.90
37222;DHT22;23119;51.842;-2.230;2022-12-16T00:43:16;-2.30;99.90
37222;DHT22;23119;51.842;-2.230;2022-12-16T00:45:44;-1.70;99.90
37222;DHT22;23119;51.842;-2.230;2022-12-16T00:48:13;-2.30;99.90
37222;DHT22;23119;51.842;-2.230;2022-12-16T00:53:08;-2.40;99.90
37222;DHT22;23119;51.842;-2.230;2022-12-16T00:55:33;-2.30;99.90
37222;DHT22;23119;51.842;-2.230;2022-12-16T00:57:59;-2.40;99.90
37222;DHT22;23119;51.842;-2.230;2022-12-16T01:00:25;-2.40;99.90
37222;DHT22;23119;51.842;-2.230;2022-12-16T01:02:51;-2.40;99.90
37222;DHT22;23119;51.842;-2.230;2022-12-16T01:05:21;-2.30;99.90
37222;DHT22;23119;51.842;-2.230;2022-12-16T01:07:53;-2.50;99.90
37222;DHT22;23119;51.842;-2.230;2022-12-16T01:10:19;-2.40;99.90
37222;DHT22;23119;51.842;-2.230;2022-12-16T01:12:45;-2.40;99.90
37222;DHT22;23119;51.842;-2.230;2022-12-16T01:15:11;-2.40;99.90
37222;DHT22;23119;51.842;-2.230;2022-12-16T01:17:39;-2.40;99.90
37222;DHT22;23119;51.842;-2.230;2022-12-16T01:20:06;-2.40;99.90
37222;DHT22;23119;51.842;-2.230;2022-12-16T01:22:32;-2.40;99.90
37222;DHT22;23119;51.842;-2.230;2022-12-16T01:25:01;-2.40;99.90
37222;DHT22;23119;51.842;-2.230;2022-12-16T01:27:28;-2.50;99.90
37222;DHT22;23119;51.842;-2.230;2022-12-16T01:29:54;-2.60;99.90
37222;DHT22;23119;51.842;-2.230;2022-12-16T01:32:22;-2.60;99.90
37222;DHT22;23119;51.842;-2.230;2022-12-16T01:34:52;-2.60;99.90
37222;DHT22;23119;51.842;-2.230;2022-12-16T01:37:18;-2.60;99.90
37222;DHT22;23119;51.842;-2.230;2022-12-16T01:39:45;-2.60;99.90
37222;DHT22;23119;51.842;-2.230;2022-12-16T01:42:17;-2.60;99.90
37222;DHT22;23119;51.842;-2.230;2022-12-16T01:44:46;-2.60;99.90
37222;DHT22;23119;51.842;-2.230;2022-12-16T01:47:18;-2.80;99.90
37222;DHT22;23119;51.842;-2.230;2022-12-16T01:49:52;-2.60;99.90
37222;DHT22;23119;51.842;-2.230;2022-12-16T01:52:27;-2.60;99.90
37222;DHT22;23119;51.842;-2.230;2022-12-16T01:55:08;-2.70;99.90
37222;DHT22;23119;51.842;-2.230;2022-12-16T01:57:45;-2.70;99.90
37222;DHT22;23119;51.842;-2.230;2022-12-16T02:00:12;-2.70;99.90
37222;DHT22;23119;51.842;-2.230;2022-12-16T02:02:40;-2.80;99.90
37222;DHT22;23119;51.842;-2.230;2022-12-16T02:05:11;-2.80;99.90
37222;DHT22;23119;51.842;-2.230;2022-12-16T02:13:32;-2.80;99.90
37222;DHT22;23119;51.842;-2.230;2022-12-16T02:35:50;-3.00;99.90
37222;DHT22;23119;51.842;-2.230;2022-12-16T02:38:48;-2.90;99.90
37222;DHT22;23119;51.842;-2.230;2022-12-16T02:44:09;-3.20;99.90
37222;DHT22;23119;51.842;-2.230;2022-12-16T02:46:51;-3.00;99.90
37222;DHT22;23119;51.842;-2.230;2022-12-16T02:51:47;-3.00;99.90
37222;DHT22;23119;51.842;-2.230;2022-12-16T02:54:13;-2.90;99.90
37222;DHT22;23119;51.842;-2.230;2022-12-16T02:56:48;-2.90;99.90
37222;DHT22;23119;51.842;-2.230;2022-12-16T03:04:46;-2.80;99.90
37222;DHT22;23119;51.842;-2.230;2022-12-16T03:07:17;-3.00;99.90
37222;DHT22;23119;51.842;-2.230;2022-12-16T03:09:50;-3.00;99.90
37222;DHT22;23119;51.842;-2.230;2022-12-16T03:14:51;-3.00;99.90
37222;DHT22;23119;51.842;-2.230;2022-12-16T03:17:19;-3.30;99.90
37222;DHT22;23119;51.842;-2.230;2022-12-16T03:19:55;-2.90;99.90
37222;DHT22;23119;51.842;-2.230;2022-12-16T03:22:26;-3.00;99.90
37222;DHT22;23119;51.842;-2.230;2022-12-16T03:27:38;-3.00;99.90
37222;DHT22;23119;51.842;-2.230;2022-12-16T03:30:15;-3.00;99.90
37222;DHT22;23119;51.842;-2.230;2022-12-16T03:33:00;-3.00;99.90
37222;DHT22;23119;51.842;-2.230;2022-12-16T03:35:35;-3.00;99.90
37222;DHT22;23119;51.842;-2.230;2022-12-16T03:38:08;-3.00;99.90
37222;DHT22;23119;51.842;-2.230;2022-12-16T03:40:36;-3.00;99.90
37222;DHT22;23119;51.842;-2.230;2022-12-16T03:43:06;-3.00;99.90
37222;DHT22;23119;51.842;-2.230;2022-12-16T03:45:39;-3.00;99.90
37222;DHT22;23119;51.842;-2.230;2022-12-16T03:48:11;-3.10;99.90
37222;DHT22;23119;51.842;-2.230;2022-12-16T03:50:38;-3.10;99.90
37222;DHT22;23119;51.842;-2.230;2022-12-16T03:53:05;-3.10;99.90
37222;DHT22;23119;51.842;-2.230;2022-12-16T03:58:05;-3.10;99.90
37222;DHT22;23119;51.842;-2.230;2022-12-16T04:07:52;-2.90;99.90
37222;DHT22;23119;51.842;-2.230;2022-12-16T04:13:10;-2.90;99.90
37222;DHT22;23119;51.842;-2.230;2022-12-16T04:15:57;-2.90;99.90
37222;DHT22;23119;51.842;-2.230;2022-12-16T04:24:16;-2.90;99.90
37222;DHT22;23119;51.842;-2.230;2022-12-16T04:26:46;-2.90;99.90
37222;DHT22;23119;51.842;-2.230;2022-12-16T04:32:06;-2.90;99.90
37222;DHT22;23119;51.842;-2.230;2022-12-16T04:37:04;-2.90;99.90
37222;DHT22;23119;51.842;-2.230;2022-12-16T04:39:48;-2.90;99.90
37222;DHT22;23119;51.842;-2.230;2022-12-16T04:45:24;-2.90;99.90
37222;DHT22;23119;51.842;-2.230;2022-12-16T04:48:09;-2.90;99.90
37222;DHT22;23119;51.842;-2.230;2022-12-16T04:50:58;-2.90;99.90
37222;DHT22;23119;51.842;-2.230;2022-12-16T04:59:14;-2.90;99.90
37222;DHT22;23119;51.842;-2.230;2022-12-16T05:01:57;-2.90;99.90
37222;DHT22;23119;51.842;-2.230;2022-12-16T05:07:26;-2.90;99.90
37222;DHT22;23119;51.842;-2.230;2022-12-16T05:12:55;-3.00;99.90
37222;DHT22;23119;51.842;-2.230;2022-12-16T05:21:09;-2.90;99.90
37222;DHT22;23119;51.842;-2.230;2022-12-16T05:32:07;-2.90;99.90
37222;DHT22;23119;51.842;-2.230;2022-12-16T05:34:51;-2.90;99.90
37222;DHT22;23119;51.842;-2.230;2022-12-16T05:43:06;-2.90;99.90
37222;DHT22;23119;51.842;-2.230;2022-12-16T05:45:50;-2.90;99.90
37222;DHT22;23119;51.842;-2.230;2022-12-16T05:48:36;-2.70;99.90
37222;DHT22;23119;51.842;-2.230;2022-12-16T05:51:20;-3.00;99.90
37222;DHT22;23119;51.842;-2.230;2022-12-16T05:54:05;-2.90;99.90
37222;DHT22;23119;51.842;-2.230;2022-12-16T05:56:49;-2.90;99.90
37222;DHT22;23119;51.842;-2.230;2022-12-16T06:05:03;-2.90;99.90
37222;DHT22;23119;51.842;-2.230;2022-12-16T06:07:51;-2.90;99.90
37222;DHT22;23119;51.842;-2.230;2022-12-16T06:10:38;-3.00;99.90
37222;DHT22;23119;51.842;-2.230;2022-12-16T06:13:30;-2.90;99.90
37222;DHT22;23119;51.842;-2.230;2022-12-16T06:16:14;-2.90;99.90
37222;DHT22;23119;51.842;-2.230;2022-12-16T06:27:14;-2.90;99.90
37222;DHT22;23119;51.842;-2.230;2022-12-16T06:32:45;-2.90;99.90
37222;DHT22;23119;51.842;-2.230;2022-12-16T06:35:37;-3.00;99.90
37222;DHT22;23119;51.842;-2.230;2022-12-16T06:43:50;-3.00;99.90
37222;DHT22;23119;51.842;-2.230;2022-12-16T06:46:37;-3.00;99.90
37222;DHT22;23119;51.842;-2.230;2022-12-16T07:00:21;-3.00;99.90
37222;DHT22;23119;51.842;-2.230;2022-12-16T07:05:57;-3.10;99.90
37222;DHT22;23119;51.842;-2.230;2022-12-16T07:08:41;-2.90;99.90
37222;DHT22;23119;51.842;-2.230;2022-12-16T07:11:25;-2.90;99.90
37222;DHT22;23119;51.842;-2.230;2022-12-16T07:16:56;-3.00;99.90
37222;DHT22;23119;51.842;-2.230;2022-12-16T07:25:12;-3.10;99.90
37222;DHT22;23119;51.842;-2.230;2022-12-16T07:30:44;-3.20;99.90
37222;DHT22;23119;51.842;-2.230;2022-12-16T08:00:54;-3.50;99.90
37222;DHT22;23119;51.842;-2.230;2022-12-16T08:06:23;-3.40;99.90
37222;DHT22;23119;51.842;-2.230;2022-12-16T08:09:08;-3.40;99.90
37222;DHT22;23119;51.842;-2.230;2022-12-16T08:11:55;-3.30;99.90
37222;DHT22;23119;51.842;-2.230;2022-12-16T08:20:08;-3.20;99.90
37222;DHT22;23119;51.842;-2.230;2022-12-16T08:25:37;-3.10;99.90
37222;DHT22;23119;51.842;-2.230;2022-12-16T08:28:23;-2.90;99.90
37222;DHT22;23119;51.842;-2.230;2022-12-16T08:31:07;-2.90;99.90
37222;DHT22;23119;51.842;-2.230;2022-12-16T08:33:54;-2.90;99.90
37222;DHT22;23119;51.842;-2.230;2022-12-16T08:39:25;-2.80;99.90
37222;DHT22;23119;51.842;-2.230;2022-12-16T08:44:56;-2.60;99.90
37222;DHT22;23119;51.842;-2.230;2022-12-16T08:47:41;-2.70;99.90
37222;DHT22;23119;51.842;-2.230;2022-12-16T08:50:27;-2.70;99.90
37222;DHT22;23119;51.842;-2.230;2022-12-16T08:53:13;-2.50;99.90
37222;DHT22;23119;51.842;-2.230;2022-12-16T08:58:56;-2.50;99.90
37222;DHT22;23119;51.842;-2.230;2022-12-16T09:04:25;-2.40;99.90
37222;DHT22;23119;51.842;-2.230;2022-12-16T09:07:12;-2.40;99.90
37222;DHT22;23119;51.842;-2.230;2022-12-16T09:15:25;-2.20;99.90
37222;DHT22;23119;51.842;-2.230;2022-12-16T09:18:13;-2.00;99.90
37222;DHT22;23119;51.842;-2.230;2022-12-16T09:21:00;-2.20;99.90
37222;DHT22;23119;51.842;-2.230;2022-12-16T09:23:47;-2.20;99.90
37222;DHT22;23119;51.842;-2.230;2022-12-16T09:26:41;-2.20;99.90
37222;DHT22;23119;51.842;-2.230;2022-12-16T09:29:25;-2.30;99.90
37222;DHT22;23119;51.842;-2.230;2022-12-16T09:34:56;-2.30;99.90
37222;DHT22;23119;51.842;-2.230;2022-12-16T09:37:47;-2.20;99.90
37222;DHT22;23119;51.842;-2.230;2022-12-16T09:40:37;-2.20;99.90
37222;DHT22;23119;51.842;-2.230;2022-12-16T09:46:22;-2.00;99.90
37222;DHT22;23119;51.842;-2.230;2022-12-16T09:52:02;-1.40;99.90
37222;DHT22;23119;51.842;-2.230;2022-12-16T09:54:49;-0.60;99.90
37222;DHT22;23119;51.842;-2.230;2022-12-16T09:57:34;0.40;99.90
37222;DHT22;23119;51.842;-2.230;2022-12-16T10:00:24;0.90;99.90
37222;DHT22;23119;51.842;-2.230;2022-12-16T10:03:26;1.30;99.90
37222;DHT22;23119;51.842;-2.230;2022-12-16T10:06:30;2.10;99.90
37222;DHT22;23119;51.842;-2.230;2022-12-16T10:12:56;4.20;99.90
37222;DHT22;23119;51.842;-2.230;2022-12-16T10:18:44;6.10;99.90
37222;DHT22;23119;51.842;-2.230;2022-12-16T10:27:44;7.80;99.90
37222;DHT22;23119;51.842;-2.230;2022-12-16T10:30:30;8.00;99.90
37222;DHT22;23119;51.842;-2.230;2022-12-16T10:33:17;7.70;99.90
37222;DHT22;23119;51.842;-2.230;2022-12-16T10:36:14;7.30;99.90
37222;DHT22;23119;51.842;-2.230;2022-12-16T10:42:25;6.90;99.90
37222;DHT22;23119;51.842;-2.230;2022-12-16T10:45:34;6.60;99.90
37222;DHT22;23119;51.842;-2.230;2022-12-16T10:48:30;6.10;99.90
37222;DHT22;23119;51.842;-2.230;2022-12-16T10:51:17;5.70;99.90
37222;DHT22;23119;51.842;-2.230;2022-12-16T10:54:29;5.10;99.90
37222;DHT22;23119;51.842;-2.230;2022-12-16T11:00:20;4.00;99.90
37222;DHT22;23119;51.842;-2.230;2022-12-16T11:03:22;3.50;99.90
37222;DHT22;23119;51.842;-2.230;2022-12-16T11:06:09;3.00;99.90
37222;DHT22;23119;51.842;-2.230;2022-12-16T11:08:54;2.30;99.90
37222;DHT22;23119;51.842;-2.230;2022-12-16T11:11:38;2.30;99.90
37222;DHT22;23119;51.842;-2.230;2022-12-16T11:14:31;2.00;99.90
37222;DHT22;23119;51.842;-2.230;2022-12-16T11:20:23;1.30;99.90
37222;DHT22;23119;51.842;-2.230;2022-12-16T11:23:15;1.20;99.90
37222;DHT22;23119;51.842;-2.230;2022-12-16T11:29:15;1.10;99.90
37222;DHT22;23119;51.842;-2.230;2022-12-16T11:32:21;1.00;99.90
37222;DHT22;23119;51.842;-2.230;2022-12-16T11:35:20;1.00;99.90
37222;DHT22;23119;51.842;-2.230;2022-12-16T11:41:35;0.70;99.90
37222;DHT22;23119;51.842;-2.230;2022-12-16T11:44:53;0.70;99.90
37222;DHT22;23119;51.842;-2.230;2022-12-16T11:50:57;0.60;99.90
37222;DHT22;23119;51.842;-2.230;2022-12-16T11:56:39;0.50;99.90
37222;DHT22;23119;51.842;-2.230;2022-12-16T12:03:11;0.50;99.90
37222;DHT22;23119;51.842;-2.230;2022-12-16T12:09:05;0.40;99.90
37222;DHT22;23119;51.842;-2.230;2022-12-16T12:12:00;0.50;99.90
37222;DHT22;23119;51.842;-2.230;2022-12-16T12:15:26;0.90;99.90
37222;DHT22;23119;51.842;-2.230;2022-12-16T12:21:37;0.50;99.90
37222;DHT22;23119;51.842;-2.230;2022-12-16T12:24:58;0.50;99.90
37222;DHT22;23119;51.842;-2.230;2022-12-16T12:31:24;0.50;99.90
37222;DHT22;23119;51.842;-2.230;2022-12-16T12:35:28;0.20;99.90
37222;DHT22;23119;51.842;-2.230;2022-12-16T12:38:03;0.40;99.90
37222;DHT22;23119;51.842;-2.230;2022-12-16T12:41:12;0.40;99.90
37222;DHT22;23119;51.842;-2.230;2022-12-16T12:46:51;0.40;99.90
37222;DHT22;23119;51.842;-2.230;2022-12-16T12:58:38;0.40;99.90
37222;DHT22;23119;51.842;-2.230;2022-12-16T13:01:30;0.60;99.90
37222;DHT22;23119;51.842;-2.230;2022-12-16T13:04:18;0.50;99.90
37222;DHT22;23119;51.842;-2.230;2022-12-16T13:07:04;0.50;99.90
37222;DHT22;23119;51.842;-2.230;2022-12-16T13:16:02;0.60;99.90
37222;DHT22;23119;51.842;-2.230;2022-12-16T13:18:46;0.60;99.90
37222;DHT22;23119;51.842;-2.230;2022-12-16T13:27:24;0.80;99.90
37222;DHT22;23119;51.842;-2.230;2022-12-16T13:33:00;0.80;99.90
37222;DHT22;23119;51.842;-2.230;2022-12-16T13:35:58;0.80;99.90
37222;DHT22;23119;51.842;-2.230;2022-12-16T13:38:52;0.80;99.90
37222;DHT22;23119;51.842;-2.230;2022-12-16T13:50:41;0.90;99.90
37222;DHT22;23119;51.842;-2.230;2022-12-16T13:53:54;1.00;99.90
37222;DHT22;23119;51.842;-2.230;2022-12-16T13:56:49;1.10;99.90
37222;DHT22;23119;51.842;-2.230;2022-12-16T13:59:44;1.00;99.90
37222;DHT22;23119;51.842;-2.230;2022-12-16T14:02:57;1.10;99.90
37222;DHT22;23119;51.842;-2.230;2022-12-16T14:05:43;1.10;99.90
37222;DHT22;23119;51.842;-2.230;2022-12-16T14:08:33;0.90;99.90
37222;DHT22;23119;51.842;-2.230;2022-12-16T14:14:25;1.10;99.90
37222;DHT22;23119;51.842;-2.230;2022-12-16T14:17:37;1.10;99.90
37222;DHT22;23119;51.842;-2.230;2022-12-16T14:20:49;1.10;99.90
37222;DHT22;23119;51.842;-2.230;2022-12-16T14:23:54;1.10;99.90
37222;DHT22;23119;51.842;-2.230;2022-12-16T14:26:46;1.10;99.90
37222;DHT22;23119;51.842;-2.230;2022-12-16T14:29:34;1.00;99.90
37222;DHT22;23119;51.842;-2.230;2022-12-16T14:35:33;0.90;99.90
37222;DHT22;23119;51.842;-2.230;2022-12-16T14:38:27;0.90;99.90
37222;DHT22;23119;51.842;-2.230;2022-12-16T14:41:18;0.80;99.90
37222;DHT22;23119;51.842;-2.230;2022-12-16T14:44:13;0.80;99.90
37222;DHT22;23119;51.842;-2.230;2022-12-16T14:46:58;0.70;99.90
37222;DHT22;23119;51.842;-2.230;2022-12-16T14:49:56;0.70;99.90
37222;DHT22;23119;51.842;-2.230;2022-12-16T14:52:51;0.70;99.90
37222;DHT22;23119;51.842;-2.230;2022-12-16T14:55:48;0.70;99.90
37222;DHT22;23119;51.842;-2.230;2022-12-16T14:58:35;0.70;99.90
37222;DHT22;23119;51.842;-2.230;2022-12-16T15:01:33;0.60;99.90
37222;DHT22;23119;51.842;-2.230;2022-12-16T15:04:20;0.60;99.90
37222;DHT22;23119;51.842;-2.230;2022-12-16T15:07:07;0.50;99.90
37222;DHT22;23119;51.842;-2.230;2022-12-16T15:09:58;0.50;99.90
37222;DHT22;23119;51.842;-2.230;2022-12-16T15:12:45;0.40;99.90
37222;DHT22;23119;51.842;-2.230;2022-12-16T15:15:43;0.40;99.90
37222;DHT22;23119;51.842;-2.230;2022-12-16T15:18:32;0.50;99.90
37222;DHT22;23119;51.842;-2.230;2022-12-16T15:21:20;0.40;99.90
37222;DHT22;23119;51.842;-2.230;2022-12-16T15:24:31;3.30;99.90
37222;DHT22;23119;51.842;-2.230;2022-12-16T15:27:37;0.30;99.90
37222;DHT22;23119;51.842;-2.230;2022-12-16T15:30:45;0.30;99.90
37222;DHT22;23119;51.842;-2.230;2022-12-16T15:33:34;0.30;99.90
37222;DHT22;23119;51.842;-2.230;2022-12-16T15:36:44;0.30;99.90
37222;DHT22;23119;51.842;-2.230;2022-12-16T15:39:39;0.40;99.90
37222;DHT22;23119;51.842;-2.230;2022-12-16T15:42:27;0.20;99.90
37222;DHT22;23119;51.842;-2.230;2022-12-16T15:45:46;0.30;99.90
37222;DHT22;23119;51.842;-2.230;2022-12-16T15:48:33;0.20;99.90
37222;DHT22;23119;51.842;-2.230;2022-12-16T15:51:52;-0.10;99.90
37222;DHT22;23119;51.842;-2.230;2022-12-16T15:54:53;0.20;99.90
37222;DHT22;23119;51.842;-2.230;2022-12-16T15:57:56;0.20;99.90
37222;DHT22;23119;51.842;-2.230;2022-12-16T16:00:40;0.20;99.90
37222;DHT22;23119;51.842;-2.230;2022-12-16T16:03:39;0.20;99.90
37222;DHT22;23119;51.842;-2.230;2022-12-16T16:06:27;0.10;99.90
37222;DHT22;23119;51.842;-2.230;2022-12-16T16:09:22;0.10;99.90
37222;DHT22;23119;51.842;-2.230;2022-12-16T16:12:11;0.10;99.90
37222;DHT22;23119;51.842;-2.230;2022-12-16T16:14:55;0.10;99.90
37222;DHT22;23119;51.842;-2.230;2022-12-16T16:17:39;0.00;99.90
37222;DHT22;23119;51.842;-2.230;2022-12-16T16:20:24;0.00;99.90
37222;DHT22;23119;51.842;-2.230;2022-12-16T16:23:11;0.10;99.90
37222;DHT22;23119;51.842;-2.230;2022-12-16T16:25:55;0.00;99.90
37222;DHT22;23119;51.842;-2.230;2022-12-16T16:28:40;0.00;99.90
37222;DHT22;23119;51.842;-2.230;2022-12-16T16:31:24;0.20;99.90
37222;DHT22;23119;51.842;-2.230;2022-12-16T16:34:09;0.00;99.90
37222;DHT22;23119;51.842;-2.230;2022-12-16T16:36:59;0.00;99.90
37222;DHT22;23119;51.842;-2.230;2022-12-16T16:39:46;0.00;99.90
37222;DHT22;23119;51.842;-2.230;2022-12-16T16:42:30;0.00;99.90
37222;DHT22;23119;51.842;-2.230;2022-12-16T16:45:14;-0.10;99.90
37222;DHT22;23119;51.842;-2.230;2022-12-16T16:53:39;-0.10;99.90
37222;DHT22;23119;51.842;-2.230;2022-12-16T16:56:33;0.00;99.90
37222;DHT22;23119;51.842;-2.230;2022-12-16T16:59:21;-0.20;99.90
37222;DHT22;23119;51.842;-2.230;2022-12-16T17:02:21;-0.10;99.90
37222;DHT22;23119;51.842;-2.230;2022-12-16T17:05:06;-0.20;99.90
37222;DHT22;23119;51.842;-2.230;2022-12-16T17:07:50;-0.20;99.90
37222;DHT22;23119;51.842;-2.230;2022-12-16T17:10:37;-0.10;99.90
37222;DHT22;23119;51.842;-2.230;2022-12-16T17:13:21;-0.10;99.90
37222;DHT22;23119;51.842;-2.230;2022-12-16T17:19:17;-0.10;99.90
37222;DHT22;23119;51.842;-2.230;2022-12-16T17:22:02;-0.20;99.90
37222;DHT22;23119;51.842;-2.230;2022-12-16T17:24:46;-0.20;99.90
37222;DHT22;23119;51.842;-2.230;2022-12-16T17:27:30;-0.10;99.90
37222;DHT22;23119;51.842;-2.230;2022-12-16T17:30:22;0.10;99.90
37222;DHT22;23119;51.842;-2.230;2022-12-16T17:33:06;-0.10;99.90
37222;DHT22;23119;51.842;-2.230;2022-12-16T17:35:53;-0.30;99.90
37222;DHT22;23119;51.842;-2.230;2022-12-16T17:38:39;-0.10;99.90
37222;DHT22;23119;51.842;-2.230;2022-12-16T17:41:26;-0.10;99.90
37222;DHT22;23119;51.842;-2.230;2022-12-16T17:44:11;0.30;99.90
37222;DHT22;23119;51.842;-2.230;2022-12-16T17:46:57;-0.20;99.90
37222;DHT22;23119;51.842;-2.230;2022-12-16T17:49:41;-0.10;99.90
37222;DHT22;23119;51.842;-2.230;2022-12-16T17:55:10;-0.20;99.90
37222;DHT22;23119;51.842;-2.230;2022-12-16T17:57:55;-0.20;99.90
37222;DHT22;23119;51.842;-2.230;2022-12-16T18:00:39;-0.10;99.90
37222;DHT22;23119;51.842;-2.230;2022-12-16T18:03:23;-0.20;99.90
37222;DHT22;23119;51.842;-2.230;2022-12-16T18:06:10;-0.30;99.90
37222;DHT22;23119;51.842;-2.230;2022-12-16T18:08:54;-0.20;99.90
37222;DHT22;23119;51.842;-2.230;2022-12-16T18:11:47;0.10;99.90
37222;DHT22;23119;51.842;-2.230;2022-12-16T18:14:32;-0.20;99.90
37222;DHT22;23119;51.842;-2.230;2022-12-16T18:17:16;-0.20;99.90
37222;DHT22;23119;51.842;-2.230;2022-12-16T18:20:00;-0.20;99.90
37222;DHT22;23119;51.842;-2.230;2022-12-16T18:22:44;-0.20;99.90
37222;DHT22;23119;51.842;-2.230;2022-12-16T18:25:31;-0.20;99.90
37222;DHT22;23119;51.842;-2.230;2022-12-16T18:28:18;-0.30;99.90
37222;DHT22;23119;51.842;-2.230;2022-12-16T18:31:07;-0.30;99.90
37222;DHT22;23119;51.842;-2.230;2022-12-16T18:33:51;-0.20;99.90
37222;DHT22;23119;51.842;-2.230;2022-12-16T18:36:36;-0.60;99.90
37222;DHT22;23119;51.842;-2.230;2022-12-16T18:39:22;-0.20;99.90
37222;DHT22;23119;51.842;-2.230;2022-12-16T18:42:07;-0.40;99.90
37222;DHT22;23119;51.842;-2.230;2022-12-16T18:44:52;-0.30;99.90
37222;DHT22;23119;51.842;-2.230;2022-12-16T18:47:36;-0.40;99.90
37222;DHT22;23119;51.842;-2.230;2022-12-16T18:50:22;-0.10;99.90
37222;DHT22;23119;51.842;-2.230;2022-12-16T18:53:06;0.80;99.90
37222;DHT22;23119;51.842;-2.230;2022-12-16T18:56:05;-0.30;99.90
37222;DHT22;23119;51.842;-2.230;2022-12-16T18:58:50;-0.70;99.90
37222;DHT22;23119;51.842;-2.230;2022-12-16T19:01:37;-0.20;99.90
37222;DHT22;23119;51.842;-2.230;2022-12-16T19:04:22;-0.20;99.90
37222;DHT22;23119;51.842;-2.230;2022-12-16T19:07:06;-0.20;99.90
37222;DHT22;23119;51.842;-2.230;2022-12-16T19:09:50;-0.20;99.90
37222;DHT22;23119;51.842;-2.230;2022-12-16T19:12:36;-0.20;99.90
37222;DHT22;23119;51.842;-2.230;2022-12-16T19:15:20;-0.20;99.90
37222;DHT22;23119;51.842;-2.230;2022-12-16T19:18:05;-0.20;99.90
37222;DHT22;23119;51.842;-2.230;2022-12-16T19:20:53;0.10;99.90
37222;DHT22;23119;51.842;-2.230;2022-12-16T19:23:41;-0.20;99.90
37222;DHT22;23119;51.842;-2.230;2022-12-16T19:26:25;-0.30;99.90
37222;DHT22;23119;51.842;-2.230;2022-12-16T19:29:10;-0.30;99.90
37222;DHT22;23119;51.842;-2.230;2022-12-16T19:32:14;-0.30;99.90
37222;DHT22;23119;51.842;-2.230;2022-12-16T19:34:58;-0.80;99.90
37222;DHT22;23119;51.842;-2.230;2022-12-16T19:37:42;-0.40;99.90
37222;DHT22;23119;51.842;-2.230;2022-12-16T19:40:27;-0.50;99.90
37222;DHT22;23119;51.842;-2.230;2022-12-16T19:43:11;-0.50;99.90
37222;DHT22;23119;51.842;-2.230;2022-12-16T19:45:55;-0.40;99.90
37222;DHT22;23119;51.842;-2.230;2022-12-16T19:48:41;-0.50;99.90
37222;DHT22;23119;51.842;-2.230;2022-12-16T19:51:26;-0.60;99.90
37222;DHT22;23119;51.842;-2.230;2022-12-16T19:54:10;-0.50;99.90
37222;DHT22;23119;51.842;-2.230;2022-12-16T19:56:54;-0.60;99.90
37222;DHT22;23119;51.842;-2.230;2022-12-16T20:02:45;-0.50;99.90
37222;DHT22;23119;51.842;-2.230;2022-12-16T20:05:29;-0.80;99.90
37222;DHT22;23119;51.842;-2.230;2022-12-16T20:08:16;-0.60;99.90
37222;DHT22;23119;51.842;-2.230;2022-12-16T20:11:10;-0.70;99.90
37222;DHT22;23119;51.842;-2.230;2022-12-16T20:13:55;-0.70;99.90
37222;DHT22;23119;51.842;-2.230;2022-12-16T20:16:40;-0.60;99.90
37222;DHT22;23119;51.842;-2.230;2022-12-16T20:19:25;-0.80;99.90
37222;DHT22;23119;51.842;-2.230;2022-12-16T20:22:09;-0.80;99.90
37222;DHT22;23119;51.842;-2.230;2022-12-16T20:24:53;-0.50;99.90
37222;DHT22;23119;51.842;-2.230;2022-12-16T20:27:38;-0.90;99.90
37222;DHT22;23119;51.842;-2.230;2022-12-16T20:30:22;-0.80;99.90
37222;DHT22;23119;51.842;-2.230;2022-12-16T20:33:14;-0.80;99.90
37222;DHT22;23119;51.842;-2.230;2022-12-16T20:36:01;-0.90;99.90
37222;DHT22;23119;51.842;-2.230;2022-12-16T20:38:46;-1.00;99.90
37222;DHT22;23119;51.842;-2.230;2022-12-16T20:41:30;-0.90;99.90
37222;DHT22;23119;51.842;-2.230;2022-12-16T20:44:15;-0.90;99.90
37222;DHT22;23119;51.842;-2.230;2022-12-16T20:47:03;-0.80;99.90
37222;DHT22;23119;51.842;-2.230;2022-12-16T20:49:48;-0.90;99.90
37222;DHT22;23119;51.842;-2.230;2022-12-16T20:52:32;-0.80;99.90
37222;DHT22;23119;51.842;-2.230;2022-12-16T20:55:18;-0.70;99.90
37222;DHT22;23119;51.842;-2.230;2022-12-16T20:58:03;-0.70;99.90
37222;DHT22;23119;51.842;-2.230;2022-12-16T21:00:54;-0.50;99.90
37222;DHT22;23119;51.842;-2.230;2022-12-16T21:03:39;-0.50;99.90
37222;DHT22;23119;51.842;-2.230;2022-12-16T21:06:23;-0.50;99.90
37222;DHT22;23119;51.842;-2.230;2022-12-16T21:09:08;-0.70;99.90
37222;DHT22;23119;51.842;-2.230;2022-12-16T21:11:54;-0.40;99.90
37222;DHT22;23119;51.842;-2.230;2022-12-16T21:14:38;-0.10;99.90
37222;DHT22;23119;51.842;-2.230;2022-12-16T21:17:22;-0.20;99.90
37222;DHT22;23119;51.842;-2.230;2022-12-16T21:20:07;-0.10;99.90
37222;DHT22;23119;51.842;-2.230;2022-12-16T21:23:01;-0.10;99.90
37222;DHT22;23119;51.842;-2.230;2022-12-16T21:25:46;0.00;99.90
37222;DHT22;23119;51.842;-2.230;2022-12-16T21:28:31;0.00;99.90
37222;DHT22;23119;51.842;-2.230;2022-12-16T21:31:15;0.10;99.90
37222;DHT22;23119;51.842;-2.230;2022-12-16T21:33:59;0.10;99.90
37222;DHT22;23119;51.842;-2.230;2022-12-16T21:36:46;0.20;99.90
37222;DHT22;23119;51.842;-2.230;2022-12-16T21:39:30;0.10;99.90
37222;DHT22;23119;51.842;-2.230;2022-12-16T21:42:14;0.20;99.90
37222;DHT22;23119;51.842;-2.230;2022-12-16T21:45:01;0.80;99.90
37222;DHT22;23119;51.842;-2.230;2022-12-16T21:47:45;0.20;99.90
37222;DHT22;23119;51.842;-2.230;2022-12-16T21:50:29;0.00;99.90
37222;DHT22;23119;51.842;-2.230;2022-12-16T21:53:17;0.20;99.90
37222;DHT22;23119;51.842;-2.230;2022-12-16T21:56:07;0.10;99.90
37222;DHT22;23119;51.842;-2.230;2022-12-16T21:58:56;0.00;99.90
37222;DHT22;23119;51.842;-2.230;2022-12-16T22:01:40;-0.10;99.90
37222;DHT22;23119;51.842;-2.230;2022-12-16T22:04:24;-0.10;99.90
37222;DHT22;23119;51.842;-2.230;2022-12-16T22:07:08;-0.10;99.90
37222;DHT22;23119;51.842;-2.230;2022-12-16T22:09:52;-0.10;99.90
37222;DHT22;23119;51.842;-2.230;2022-12-16T22:12:37;0.00;99.90
37222;DHT22;23119;51.842;-2.230;2022-12-16T22:15:21;0.20;99.90
37222;DHT22;23119;51.842;-2.230;2022-12-16T22:18:05;-0.10;99.90
37222;DHT22;23119;51.842;-2.230;2022-12-16T22:21:01;0.00;99.90
37222;DHT22;23119;51.842;-2.230;2022-12-16T22:23:45;0.10;99.90
37222;DHT22;23119;51.842;-2.230;2022-12-16T22:26:29;0.00;99.90